Terminal Aerodrome Forecast
Issued by NWS Huntsville, AL

Current Version | Previous Version | Text Only | Print | Product List | Glossary On
Versions: 1 2 3 4 5 6 7 8 9 10 11 12 13 14 15 16 17 18 19 20 21 22 23 24 25 26 27 28
000
FTUS44 KHUN 171140
TAFMSL
TAF
KMSL 171140Z 1712/1812 32003KT P6SM BKN040
     FM171600 35007KT P6SM FEW040 SCT250
     FM172200 01005KT P6SM SCT060 BKN150
     FM180600 03003KT P6SM BKN040 OVC100=

USA.gov is the U.S. government's official web portal to all federal, state and local government web resources and services.